sensor_id;sensor_type;location;lat;lon;timestamp;pressure;altitude;pressure_sealevel;temperature;humidity
46718;BME280;32448;44.960;-0.698;2023-06-19T00:01:15;101070.13;;;18.75;100.00
46718;BME280;32448;44.960;-0.698;2023-06-19T00:03:42;101070.19;;;18.68;100.00
46718;BME280;32448;44.960;-0.698;2023-06-19T00:06:09;101073.78;;;18.65;100.00
46718;BME280;32448;44.960;-0.698;2023-06-19T00:08:39;101070.09;;;18.77;100.00
46718;BME280;32448;44.960;-0.698;2023-06-19T00:11:10;101072.63;;;18.86;100.00
46718;BME280;32448;44.960;-0.698;2023-06-19T00:13:39;101071.00;;;18.76;100.00
46718;BME280;32448;44.960;-0.698;2023-06-19T00:16:07;101069.31;;;18.67;100.00
46718;BME280;32448;44.960;-0.698;2023-06-19T00:18:42;101073.78;;;18.65;100.00
46718;BME280;32448;44.960;-0.698;2023-06-19T00:21:11;101069.25;;;18.73;100.00
46718;BME280;32448;44.960;-0.698;2023-06-19T00:23:44;101066.72;;;18.63;100.00
46718;BME280;32448;44.960;-0.698;2023-06-19T00:26:12;101063.22;;;18.61;100.00
46718;BME280;32448;44.960;-0.698;2023-06-19T00:28:42;101063.22;;;18.62;100.00
46718;BME280;32448;44.960;-0.698;2023-06-19T00:31:12;101054.41;;;18.60;100.00
46718;BME280;32448;44.960;-0.698;2023-06-19T00:33:40;101055.25;;;18.65;100.00
46718;BME280;32448;44.960;-0.698;2023-06-19T00:36:11;101064.06;;;18.64;100.00
46718;BME280;32448;44.960;-0.698;2023-06-19T00:38:39;101057.06;;;18.59;100.00
46718;BME280;32448;44.960;-0.698;2023-06-19T00:41:06;101048.22;;;18.56;100.00
46718;BME280;32448;44.960;-0.698;2023-06-19T00:43:36;101040.34;;;18.52;100.00
46718;BME280;32448;44.960;-0.698;2023-06-19T00:46:03;101041.34;;;18.42;100.00
46718;BME280;32448;44.960;-0.698;2023-06-19T00:48:31;101029.88;;;18.41;100.00
46718;BME280;32448;44.960;-0.698;2023-06-19T00:51:00;101034.22;;;18.45;100.00
46718;BME280;32448;44.960;-0.698;2023-06-19T00:53:28;101036.84;;;18.48;100.00
46718;BME280;32448;44.960;-0.698;2023-06-19T00:55:58;101035.94;;;18.51;100.00
46718;BME280;32448;44.960;-0.698;2023-06-19T00:58:26;101035.06;;;18.50;100.00
46718;BME280;32448;44.960;-0.698;2023-06-19T01:00:55;101035.03;;;18.55;100.00
46718;BME280;32448;44.960;-0.698;2023-06-19T01:03:35;101037.69;;;18.53;100.00
46718;BME280;32448;44.960;-0.698;2023-06-19T01:06:13;101038.56;;;18.55;100.00
46718;BME280;32448;44.960;-0.698;2023-06-19T01:08:49;101042.94;;;18.58;100.00
46718;BME280;32448;44.960;-0.698;2023-06-19T01:11:20;101036.75;;;18.61;100.00
46718;BME280;32448;44.960;-0.698;2023-06-19T01:13:55;101038.50;;;18.63;100.00
46718;BME280;32448;44.960;-0.698;2023-06-19T01:16:26;101043.75;;;18.66;100.00
46718;BME280;32448;44.960;-0.698;2023-06-19T01:18:54;101044.56;;;18.70;100.00
46718;BME280;32448;44.960;-0.698;2023-06-19T01:21:26;101038.41;;;18.69;100.00
46718;BME280;32448;44.960;-0.698;2023-06-19T01:23:54;101041.03;;;18.71;100.00
46718;BME280;32448;44.960;-0.698;2023-06-19T01:26:23;101043.63;;;18.75;100.00
46718;BME280;32448;44.960;-0.698;2023-06-19T01:28:56;101040.16;;;18.72;100.00
46718;BME280;32448;44.960;-0.698;2023-06-19T01:31:38;101034.94;;;18.66;100.00
46718;BME280;32448;44.960;-0.698;2023-06-19T01:34:09;101037.53;;;18.67;100.00
46718;BME280;32448;44.960;-0.698;2023-06-19T01:36:40;101026.00;;;18.73;100.00
46718;BME280;32448;44.960;-0.698;2023-06-19T01:39:08;101036.59;;;18.73;100.00
46718;BME280;32448;44.960;-0.698;2023-06-19T01:41:36;101034.88;;;18.69;100.00
46718;BME280;32448;44.960;-0.698;2023-06-19T01:44:04;101026.91;;;18.72;100.00
46718;BME280;32448;44.960;-0.698;2023-06-19T01:46:31;101015.38;;;18.77;100.00
46718;BME280;32448;44.960;-0.698;2023-06-19T01:49:05;101016.22;;;18.78;100.00
46718;BME280;32448;44.960;-0.698;2023-06-19T01:51:34;101020.69;;;18.74;100.00
46718;BME280;32448;44.960;-0.698;2023-06-19T01:54:03;101014.50;;;18.75;100.00
46718;BME280;32448;44.960;-0.698;2023-06-19T01:56:31;101013.53;;;18.81;100.00
46718;BME280;32448;44.960;-0.698;2023-06-19T01:58:59;101001.16;;;18.84;100.00
46718;BME280;32448;44.960;-0.698;2023-06-19T02:01:27;100997.59;;;18.85;100.00
46718;BME280;32448;44.960;-0.698;2023-06-19T02:03:55;100995.81;;;18.86;100.00
46718;BME280;32448;44.960;-0.698;2023-06-19T02:06:23;101001.16;;;18.84;100.00
46718;BME280;32448;44.960;-0.698;2023-06-19T02:08:52;100998.47;;;18.86;100.00
46718;BME280;32448;44.960;-0.698;2023-06-19T02:11:20;100995.81;;;18.86;100.00
46718;BME280;32448;44.960;-0.698;2023-06-19T02:13:47;100994.97;;;18.84;100.00
46718;BME280;32448;44.960;-0.698;2023-06-19T02:16:14;100989.63;;;18.87;100.00
46718;BME280;32448;44.960;-0.698;2023-06-19T02:18:42;100991.41;;;18.86;100.00
46718;BME280;32448;44.960;-0.698;2023-06-19T02:21:10;100987.00;;;18.87;100.00
46718;BME280;32448;44.960;-0.698;2023-06-19T02:23:39;100976.41;;;18.87;100.00
46718;BME280;32448;44.960;-0.698;2023-06-19T02:26:07;100978.19;;;18.85;100.00
46718;BME280;32448;44.960;-0.698;2023-06-19T02:28:35;100973.72;;;18.88;100.00
46718;BME280;32448;44.960;-0.698;2023-06-19T02:31:04;100971.91;;;18.89;100.00
46718;BME280;32448;44.960;-0.698;2023-06-19T02:33:32;100975.50;;;18.88;100.00
46718;BME280;32448;44.960;-0.698;2023-06-19T02:36:00;100971.00;;;18.91;100.00
46718;BME280;32448;44.960;-0.698;2023-06-19T02:38:29;100968.38;;;18.91;100.00
46718;BME280;32448;44.960;-0.698;2023-06-19T02:40:56;100962.16;;;18.92;100.00
46718;BME280;32448;44.960;-0.698;2023-06-19T02:43:49;100949.81;;;18.91;100.00
46718;BME280;32448;44.960;-0.698;2023-06-19T02:46:43;100963.16;;;18.87;100.00
46718;BME280;32448;44.960;-0.698;2023-06-19T02:49:11;100971.19;;;18.78;100.00
46718;BME280;32448;44.960;-0.698;2023-06-19T02:51:45;100976.59;;;18.72;100.00
46718;BME280;32448;44.960;-0.698;2023-06-19T02:54:16;100984.47;;;18.76;100.00
46718;BME280;32448;44.960;-0.698;2023-06-19T02:56:45;100989.81;;;18.73;100.00
46718;BME280;32448;44.960;-0.698;2023-06-19T02:59:16;100988.91;;;18.74;100.00
46718;BME280;32448;44.960;-0.698;2023-06-19T03:01:44;100982.78;;;18.71;100.00
46718;BME280;32448;44.960;-0.698;2023-06-19T03:04:13;100973.94;;;18.72;100.00
46718;BME280;32448;44.960;-0.698;2023-06-19T03:06:41;100956.28;;;18.72;100.00
46718;BME280;32448;44.960;-0.698;2023-06-19T03:09:09;100971.38;;;18.66;100.00
46718;BME280;32448;44.960;-0.698;2023-06-19T03:11:39;100967.03;;;18.60;100.00
46718;BME280;32448;44.960;-0.698;2023-06-19T03:14:08;100966.13;;;18.61;100.00
46718;BME280;32448;44.960;-0.698;2023-06-19T03:16:39;100965.28;;;18.56;100.00
46718;BME280;32448;44.960;-0.698;2023-06-19T03:19:19;100972.41;;;18.51;100.00
46718;BME280;32448;44.960;-0.698;2023-06-19T03:21:50;100987.38;;;18.55;100.00
46718;BME280;32448;44.960;-0.698;2023-06-19T03:24:19;100996.19;;;18.55;100.00
46718;BME280;32448;44.960;-0.698;2023-06-19T03:26:49;100996.22;;;18.52;100.00
46718;BME280;32448;44.960;-0.698;2023-06-19T03:29:17;101007.63;;;18.56;100.00
46718;BME280;32448;44.960;-0.698;2023-06-19T03:32:00;101001.50;;;18.54;100.00
46718;BME280;32448;44.960;-0.698;2023-06-19T03:34:31;101005.84;;;18.63;100.00
46718;BME280;32448;44.960;-0.698;2023-06-19T03:37:02;101007.59;;;18.64;100.00
46718;BME280;32448;44.960;-0.698;2023-06-19T03:39:32;101007.59;;;18.62;100.00
46718;BME280;32448;44.960;-0.698;2023-06-19T03:42:06;101004.06;;;18.65;100.00
46718;BME280;32448;44.960;-0.698;2023-06-19T03:44:34;100999.69;;;18.61;100.00
46718;BME280;32448;44.960;-0.698;2023-06-19T03:47:01;100984.66;;;18.63;100.00
46718;BME280;32448;44.960;-0.698;2023-06-19T03:49:29;100987.34;;;18.58;100.00
46718;BME280;32448;44.960;-0.698;2023-06-19T03:52:02;100984.66;;;18.61;100.00
46718;BME280;32448;44.960;-0.698;2023-06-19T03:54:31;100992.59;;;18.63;100.00
46718;BME280;32448;44.960;-0.698;2023-06-19T03:57:03;100983.72;;;18.67;100.00
46718;BME280;32448;44.960;-0.698;2023-06-19T03:59:34;100978.44;;;18.65;100.00
46718;BME280;32448;44.960;-0.698;2023-06-19T04:02:12;100976.69;;;18.66;100.00
46718;BME280;32448;44.960;-0.698;2023-06-19T04:04:53;100972.19;;;18.71;100.00
46718;BME280;32448;44.960;-0.698;2023-06-19T04:07:25;100965.91;;;18.78;100.00
46718;BME280;32448;44.960;-0.698;2023-06-19T04:09:53;100961.44;;;18.81;100.00
46718;BME280;32448;44.960;-0.698;2023-06-19T04:12:22;100957.09;;;18.77;100.00
46718;BME280;32448;44.960;-0.698;2023-06-19T04:15:04;100958.03;;;18.75;100.00
46718;BME280;32448;44.960;-0.698;2023-06-19T04:17:42;100930.88;;;18.58;100.00
46718;BME280;32448;44.960;-0.698;2023-06-19T04:20:24;100949.22;;;18.73;100.00
46718;BME280;32448;44.960;-0.698;2023-06-19T04:22:55;100953.69;;;18.68;100.00
46718;BME280;32448;44.960;-0.698;2023-06-19T04:25:31;100952.81;;;18.67;100.00
46718;BME280;32448;44.960;-0.698;2023-06-19T04:28:13;100965.19;;;18.67;100.00
46718;BME280;32448;44.960;-0.698;2023-06-19T04:30:50;100964.34;;;18.65;100.00
46718;BME280;32448;44.960;-0.698;2023-06-19T04:33:55;100964.38;;;18.62;100.00
46718;BME280;32448;44.960;-0.698;2023-06-19T04:36:28;100958.19;;;18.61;100.00
46718;BME280;32448;44.960;-0.698;2023-06-19T04:38:55;100964.38;;;18.57;100.00
46718;BME280;32448;44.960;-0.698;2023-06-19T04:41:23;100957.34;;;18.59;100.00
46718;BME280;32448;44.960;-0.698;2023-06-19T04:43:50;100956.38;;;18.66;100.00
46718;BME280;32448;44.960;-0.698;2023-06-19T04:46:18;100947.47;;;18.72;100.00
46718;BME280;32448;44.960;-0.698;2023-06-19T04:48:51;100941.25;;;18.74;100.00
46718;BME280;32448;44.960;-0.698;2023-06-19T04:51:24;100953.53;;;18.78;100.00
46718;BME280;32448;44.960;-0.698;2023-06-19T04:53:53;100950.00;;;18.79;100.00
46718;BME280;32448;44.960;-0.698;2023-06-19T04:56:22;100942.88;;;18.83;100.00
46718;BME280;32448;44.960;-0.698;2023-06-19T04:58:52;100941.97;;;18.85;100.00
46718;BME280;32448;44.960;-0.698;2023-06-19T05:01:23;100943.75;;;18.85;100.00
46718;BME280;32448;44.960;-0.698;2023-06-19T05:03:55;100935.81;;;18.83;100.00
46718;BME280;32448;44.960;-0.698;2023-06-19T05:06:24;100934.91;;;18.86;100.00
46718;BME280;32448;44.960;-0.698;2023-06-19T05:08:51;100929.63;;;18.84;100.00
46718;BME280;32448;44.960;-0.698;2023-06-19T05:11:19;100909.22;;;18.89;100.00
46718;BME280;32448;44.960;-0.698;2023-06-19T05:13:47;100902.97;;;18.95;100.00
46718;BME280;32448;44.960;-0.698;2023-06-19T05:16:15;100895.81;;;19.02;100.00
46718;BME280;32448;44.960;-0.698;2023-06-19T05:18:43;100897.53;;;19.04;100.00
46718;BME280;32448;44.960;-0.698;2023-06-19T05:21:11;100891.31;;;19.08;100.00
46718;BME280;32448;44.960;-0.698;2023-06-19T05:23:41;100889.44;;;19.12;100.00
46718;BME280;32448;44.960;-0.698;2023-06-19T05:26:09;100889.38;;;19.16;100.00
46718;BME280;32448;44.960;-0.698;2023-06-19T05:28:47;100893.75;;;19.20;100.00
46718;BME280;32448;44.960;-0.698;2023-06-19T05:31:18;100895.34;;;19.31;100.00
46718;BME280;32448;44.960;-0.698;2023-06-19T05:33:50;100892.50;;;19.41;100.00
46718;BME280;32448;44.960;-0.698;2023-06-19T05:36:18;100897.69;;;19.47;100.00
46718;BME280;32448;44.960;-0.698;2023-06-19T05:38:45;100901.16;;;19.54;100.00
46718;BME280;32448;44.960;-0.698;2023-06-19T05:41:13;100892.06;;;19.67;100.00
46718;BME280;32448;44.960;-0.698;2023-06-19T05:43:40;100894.63;;;19.72;100.00
46718;BME280;32448;44.960;-0.698;2023-06-19T05:46:07;100891.84;;;19.78;100.00
46718;BME280;32448;44.960;-0.698;2023-06-19T05:48:35;100897.88;;;19.87;100.00
46718;BME280;32448;44.960;-0.698;2023-06-19T05:51:04;100894.31;;;19.88;100.00
46718;BME280;32448;44.960;-0.698;2023-06-19T05:53:32;100888.72;;;20.02;100.00
46718;BME280;32448;44.960;-0.698;2023-06-19T05:56:01;100898.34;;;20.09;100.00
46718;BME280;32448;44.960;-0.698;2023-06-19T05:58:28;100901.81;;;20.11;100.00
46718;BME280;32448;44.960;-0.698;2023-06-19T06:00:55;100900.88;;;20.14;100.00
46718;BME280;32448;44.960;-0.698;2023-06-19T06:03:24;100912.41;;;20.13;100.00
46718;BME280;32448;44.960;-0.698;2023-06-19T06:05:52;100912.34;;;20.16;100.00
46718;BME280;32448;44.960;-0.698;2023-06-19T06:08:19;100906.97;;;20.20;100.00
46718;BME280;32448;44.960;-0.698;2023-06-19T06:10:46;100898.84;;;20.26;100.00
46718;BME280;32448;44.960;-0.698;2023-06-19T06:13:13;100902.25;;;20.33;100.00
46718;BME280;32448;44.960;-0.698;2023-06-19T06:15:40;100903.94;;;20.39;100.00
46718;BME280;32448;44.960;-0.698;2023-06-19T06:18:08;100904.75;;;20.42;100.00
46718;BME280;32448;44.960;-0.698;2023-06-19T06:20:35;100905.56;;;20.46;100.00
46718;BME280;32448;44.960;-0.698;2023-06-19T06:23:02;100902.78;;;20.52;100.00
46718;BME280;32448;44.960;-0.698;2023-06-19T06:25:30;100902.59;;;20.59;100.00
46718;BME280;32448;44.960;-0.698;2023-06-19T06:27:57;100910.41;;;20.67;100.00
46718;BME280;32448;44.960;-0.698;2023-06-19T06:30:24;100905.84;;;20.74;100.00
46718;BME280;32448;44.960;-0.698;2023-06-19T06:32:52;100919.91;;;20.77;100.00
46718;BME280;32448;44.960;-0.698;2023-06-19T06:35:19;100916.34;;;20.78;100.00
46718;BME280;32448;44.960;-0.698;2023-06-19T06:37:46;100918.03;;;20.82;100.00
46718;BME280;32448;44.960;-0.698;2023-06-19T06:40:16;100919.66;;;20.88;100.00
46718;BME280;32448;44.960;-0.698;2023-06-19T06:42:43;100915.19;;;20.90;100.00
46718;BME280;32448;44.960;-0.698;2023-06-19T06:45:11;100909.03;;;20.88;100.00
46718;BME280;32448;44.960;-0.698;2023-06-19T06:47:38;100909.03;;;20.88;100.00
46718;BME280;32448;44.960;-0.698;2023-06-19T06:50:07;100906.44;;;20.86;100.00
46718;BME280;32448;44.960;-0.698;2023-06-19T06:52:35;100915.19;;;20.90;100.00
46718;BME280;32448;44.960;-0.698;2023-06-19T06:55:02;100909.00;;;20.89;100.00
46718;BME280;32448;44.960;-0.698;2023-06-19T06:57:29;100897.44;;;20.92;100.00
46718;BME280;32448;44.960;-0.698;2023-06-19T06:59:57;100906.38;;;20.88;100.00
46718;BME280;32448;44.960;-0.698;2023-06-19T07:02:24;100893.94;;;20.90;100.00
46718;BME280;32448;44.960;-0.698;2023-06-19T07:04:51;100905.28;;;20.98;100.00
46718;BME280;32448;44.960;-0.698;2023-06-19T07:07:19;100905.34;;;20.95;100.00
46718;BME280;32448;44.960;-0.698;2023-06-19T07:09:46;100894.53;;;21.01;100.00
46718;BME280;32448;44.960;-0.698;2023-06-19T07:12:14;100891.03;;;20.99;100.00
46718;BME280;32448;44.960;-0.698;2023-06-19T07:14:41;100897.13;;;21.04;100.00
46718;BME280;32448;44.960;-0.698;2023-06-19T07:17:08;100897.03;;;21.08;100.00
46718;BME280;32448;44.960;-0.698;2023-06-19T07:19:36;100903.03;;;21.17;100.00
46718;BME280;32448;44.960;-0.698;2023-06-19T07:22:03;100898.59;;;21.19;100.00
46718;BME280;32448;44.960;-0.698;2023-06-19T07:24:30;100895.94;;;21.19;100.00
46718;BME280;32448;44.960;-0.698;2023-06-19T07:26:57;100889.53;;;21.26;100.00
46718;BME280;32448;44.960;-0.698;2023-06-19T07:29:24;100892.13;;;21.29;100.00
46718;BME280;32448;44.960;-0.698;2023-06-19T07:31:53;100889.28;;;21.36;100.00
46718;BME280;32448;44.960;-0.698;2023-06-19T07:34:20;100890.91;;;21.42;100.00
46718;BME280;32448;44.960;-0.698;2023-06-19T07:36:48;100881.06;;;21.46;100.00
46718;BME280;32448;44.960;-0.698;2023-06-19T07:39:15;100894.03;;;21.58;100.00
46718;BME280;32448;44.960;-0.698;2023-06-19T07:41:42;100893.16;;;21.57;100.00
46718;BME280;32448;44.960;-0.698;2023-06-19T07:44:10;100901.03;;;21.62;100.00
46718;BME280;32448;44.960;-0.698;2023-06-19T07:46:37;100901.69;;;21.70;100.00
46718;BME280;32448;44.960;-0.698;2023-06-19T07:49:04;100911.44;;;21.71;100.00
46718;BME280;32448;44.960;-0.698;2023-06-19T07:51:31;100903.38;;;21.74;100.00
46718;BME280;32448;44.960;-0.698;2023-06-19T07:53:58;100905.88;;;21.78;100.00
46718;BME280;32448;44.960;-0.698;2023-06-19T07:56:26;100898.59;;;21.87;100.00
46718;BME280;32448;44.960;-0.698;2023-06-19T07:58:53;100900.28;;;21.89;100.00
46718;BME280;32448;44.960;-0.698;2023-06-19T08:01:21;100901.97;;;21.92;100.00
46718;BME280;32448;44.960;-0.698;2023-06-19T08:03:48;100911.50;;;22.02;100.00
46718;BME280;32448;44.960;-0.698;2023-06-19T08:06:15;100917.47;;;22.10;100.00
46718;BME280;32448;44.960;-0.698;2023-06-19T08:08:43;100924.72;;;22.05;100.00
46718;BME280;32448;44.960;-0.698;2023-06-19T08:11:10;100925.53;;;22.08;100.00
46718;BME280;32448;44.960;-0.698;2023-06-19T08:13:37;100918.25;;;22.13;100.00
46718;BME280;32448;44.960;-0.698;2023-06-19T08:16:04;100928.88;;;22.15;100.00
46718;BME280;32448;44.960;-0.698;2023-06-19T08:18:32;100915.78;;;22.07;100.00
46718;BME280;32448;44.960;-0.698;2023-06-19T08:20:59;100919.47;;;22.02;100.00
46718;BME280;32448;44.960;-0.698;2023-06-19T08:23:26;100928.13;;;22.10;100.00
46718;BME280;32448;44.960;-0.698;2023-06-19T08:25:54;100928.94;;;22.12;100.00
46718;BME280;32448;44.960;-0.698;2023-06-19T08:28:21;100912.78;;;22.20;100.00
46718;BME280;32448;44.960;-0.698;2023-06-19T08:30:48;100919.38;;;22.36;100.00
46718;BME280;32448;44.960;-0.698;2023-06-19T08:33:15;100899.56;;;22.46;100.00
46718;BME280;32448;44.960;-0.698;2023-06-19T08:35:43;100895.31;;;22.68;100.00
46718;BME280;32448;44.960;-0.698;2023-06-19T08:38:11;100901.91;;;22.86;100.00
46718;BME280;32448;44.960;-0.698;2023-06-19T08:40:38;100893.56;;;22.97;100.00
46718;BME280;32448;44.960;-0.698;2023-06-19T08:43:05;100883.78;;;22.97;100.00
46718;BME280;32448;44.960;-0.698;2023-06-19T08:45:32;100888.84;;;23.05;100.00
46718;BME280;32448;44.960;-0.698;2023-06-19T08:48:00;100888.66;;;23.11;100.00
46718;BME280;32448;44.960;-0.698;2023-06-19T08:50:34;100890.09;;;23.21;100.00
46718;BME280;32448;44.960;-0.698;2023-06-19T08:53:02;100874.22;;;23.18;100.00
46718;BME280;32448;44.960;-0.698;2023-06-19T08:55:29;100862.81;;;23.13;100.00
46718;BME280;32448;44.960;-0.698;2023-06-19T08:57:56;100871.22;;;23.27;100.00
46718;BME280;32448;44.960;-0.698;2023-06-19T09:00:24;100870.31;;;23.28;100.00
46718;BME280;32448;44.960;-0.698;2023-06-19T09:02:59;100868.19;;;23.38;100.00
46718;BME280;32448;44.960;-0.698;2023-06-19T09:05:40;100857.53;;;23.38;100.00
46718;BME280;32448;44.960;-0.698;2023-06-19T09:08:12;100866.16;;;23.44;100.00
46718;BME280;32448;44.960;-0.698;2023-06-19T09:10:40;100849.72;;;23.58;100.00
46718;BME280;32448;44.960;-0.698;2023-06-19T09:13:07;100848.06;;;23.79;100.00
46718;BME280;32448;44.960;-0.698;2023-06-19T09:15:35;100837.66;;;23.96;100.00
46718;BME280;32448;44.960;-0.698;2023-06-19T09:18:09;100835.28;;;24.12;100.00
46718;BME280;32448;44.960;-0.698;2023-06-19T09:20:37;100828.69;;;24.22;100.00
46718;BME280;32448;44.960;-0.698;2023-06-19T09:23:11;100817.72;;;24.29;100.00
46718;BME280;32448;44.960;-0.698;2023-06-19T09:25:44;100816.72;;;24.54;100.00
46718;BME280;32448;44.960;-0.698;2023-06-19T09:28:21;100813.44;;;24.69;100.00
46718;BME280;32448;44.960;-0.698;2023-06-19T09:33:19;100810.06;;;24.86;100.00
46718;BME280;32448;44.960;-0.698;2023-06-19T09:35:49;100813.28;;;24.95;100.00
46718;BME280;32448;44.960;-0.698;2023-06-19T09:38:16;100811.28;;;25.00;100.00
46718;BME280;32448;44.960;-0.698;2023-06-19T09:40:45;100810.53;;;24.97;100.00
46718;BME280;32448;44.960;-0.698;2023-06-19T09:43:13;100802.25;;;25.03;100.00
46718;BME280;32448;44.960;-0.698;2023-06-19T09:45:41;100817.88;;;25.14;100.00
46718;BME280;32448;44.960;-0.698;2023-06-19T09:48:08;100805.53;;;25.30;100.00
46718;BME280;32448;44.960;-0.698;2023-06-19T09:50:48;100806.97;;;25.38;100.00
46718;BME280;32448;44.960;-0.698;2023-06-19T09:53:17;100814.78;;;25.23;100.00
46718;BME280;32448;44.960;-0.698;2023-06-19T09:55:44;100812.03;;;25.24;100.00
46718;BME280;32448;44.960;-0.698;2023-06-19T09:58:11;100812.28;;;24.98;100.00
46718;BME280;32448;44.960;-0.698;2023-06-19T10:00:38;100803.72;;;25.10;100.00
46718;BME280;32448;44.960;-0.698;2023-06-19T10:03:11;100794.38;;;25.00;100.00
46718;BME280;32448;44.960;-0.698;2023-06-19T10:05:38;100807.50;;;25.06;100.00
46718;BME280;32448;44.960;-0.698;2023-06-19T10:08:06;100805.34;;;25.14;100.00
46718;BME280;32448;44.960;-0.698;2023-06-19T10:10:35;100806.41;;;25.10;100.00
46718;BME280;32448;44.960;-0.698;2023-06-19T10:13:12;100798.91;;;24.98;100.00
46718;BME280;32448;44.960;-0.698;2023-06-19T10:15:41;100792.22;;;25.08;100.00
46718;BME280;32448;44.960;-0.698;2023-06-19T10:18:14;100790.41;;;25.09;100.00
46718;BME280;32448;44.960;-0.698;2023-06-19T10:20:43;100788.03;;;25.23;100.00
46718;BME280;32448;44.960;-0.698;2023-06-19T10:23:14;100798.53;;;25.48;100.00
46718;BME280;32448;44.960;-0.698;2023-06-19T10:25:47;100784.41;;;25.85;100.00
46718;BME280;32448;44.960;-0.698;2023-06-19T10:28:28;100775.41;;;25.86;100.00
46718;BME280;32448;44.960;-0.698;2023-06-19T10:31:00;100774.75;;;26.18;100.00
46718;BME280;32448;44.960;-0.698;2023-06-19T10:33:29;100772.94;;;26.39;100.00
46718;BME280;32448;44.960;-0.698;2023-06-19T10:35:57;100768.06;;;26.47;100.00
46718;BME280;32448;44.960;-0.698;2023-06-19T10:38:24;100765.31;;;26.66;100.00
46718;BME280;32448;44.960;-0.698;2023-06-19T10:40:51;100758.63;;;26.93;100.00
46718;BME280;32448;44.960;-0.698;2023-06-19T10:43:19;100746.69;;;26.99;100.00
46718;BME280;32448;44.960;-0.698;2023-06-19T10:45:48;100752.81;;;26.83;100.00
46718;BME280;32448;44.960;-0.698;2023-06-19T10:48:33;100752.28;;;27.11;100.00
46718;BME280;32448;44.960;-0.698;2023-06-19T10:51:00;100740.50;;;27.31;100.00
46718;BME280;32448;44.960;-0.698;2023-06-19T10:53:31;100735.16;;;27.31;100.00
46718;BME280;32448;44.960;-0.698;2023-06-19T10:56:00;100739.56;;;27.32;100.00
46718;BME280;32448;44.960;-0.698;2023-06-19T10:58:27;100729.53;;;27.36;100.00
46718;BME280;32448;44.960;-0.698;2023-06-19T11:00:55;100732.84;;;27.41;100.00
46718;BME280;32448;44.960;-0.698;2023-06-19T11:03:23;100720.84;;;27.48;100.00
46718;BME280;32448;44.960;-0.698;2023-06-19T11:05:51;100730.72;;;27.80;100.00
46718;BME280;32448;44.960;-0.698;2023-06-19T11:08:19;100727.38;;;27.93;100.00
46718;BME280;32448;44.960;-0.698;2023-06-19T11:10:46;100723.88;;;27.90;100.00
46718;BME280;32448;44.960;-0.698;2023-06-19T11:13:14;100720.84;;;27.97;100.00
46718;BME280;32448;44.960;-0.698;2023-06-19T11:15:42;100707.34;;;28.14;100.00
46718;BME280;32448;44.960;-0.698;2023-06-19T11:18:10;100705.44;;;28.32;100.00
46718;BME280;32448;44.960;-0.698;2023-06-19T11:20:52;100709.63;;;28.67;100.00
46718;BME280;32448;44.960;-0.698;2023-06-19T11:23:26;100707.03;;;28.66;100.00
46718;BME280;32448;44.960;-0.698;2023-06-19T11:25:53;100695.47;;;28.49;100.00
46718;BME280;32448;44.960;-0.698;2023-06-19T11:28:21;100690.66;;;28.54;100.00
46718;BME280;32448;44.960;-0.698;2023-06-19T11:30:49;100692.53;;;28.68;100.00
46718;BME280;32448;44.960;-0.698;2023-06-19T11:33:24;100691.75;;;28.66;100.00
46718;BME280;32448;44.960;-0.698;2023-06-19T11:35:52;100680.13;;;28.81;100.00
46718;BME280;32448;44.960;-0.698;2023-06-19T11:38:23;100687.69;;;29.05;100.00
46718;BME280;32448;44.960;-0.698;2023-06-19T11:40:50;100689.50;;;29.18;100.00
46718;BME280;32448;44.960;-0.698;2023-06-19T11:43:30;100686.22;;;29.27;100.00
46718;BME280;32448;44.960;-0.698;2023-06-19T11:46:02;100674.44;;;29.44;100.00
46718;BME280;32448;44.960;-0.698;2023-06-19T11:48:30;100682.13;;;29.50;100.00
46718;BME280;32448;44.960;-0.698;2023-06-19T11:50:58;100668.19;;;29.44;100.00
46718;BME280;32448;44.960;-0.698;2023-06-19T11:53:25;100671.75;;;29.44;100.00
46718;BME280;32448;44.960;-0.698;2023-06-19T11:55:52;100671.94;;;29.55;100.00
46718;BME280;32448;44.960;-0.698;2023-06-19T11:58:19;100673.59;;;29.58;100.00
46718;BME280;32448;44.960;-0.698;2023-06-19T12:00:48;100671.53;;;29.61;100.00
46718;BME280;32448;44.960;-0.698;2023-06-19T12:03:15;100668.38;;;29.41;100.00
46718;BME280;32448;44.960;-0.698;2023-06-19T12:05:43;100660.28;;;29.12;100.00
46718;BME280;32448;44.960;-0.698;2023-06-19T12:08:10;100665.50;;;29.44;100.00
46718;BME280;32448;44.960;-0.698;2023-06-19T12:10:37;100660.00;;;29.31;100.00
46718;BME280;32448;44.960;-0.698;2023-06-19T12:13:04;100655.28;;;29.63;100.00
46718;BME280;32448;44.960;-0.698;2023-06-19T12:15:31;100647.97;;;29.51;100.00
46718;BME280;32448;44.960;-0.698;2023-06-19T12:18:02;100641.03;;;29.75;100.00
46718;BME280;32448;44.960;-0.698;2023-06-19T12:20:31;100647.59;;;29.71;100.00
46718;BME280;32448;44.960;-0.698;2023-06-19T12:22:58;100651.94;;;29.59;100.00
46718;BME280;32448;44.960;-0.698;2023-06-19T12:25:25;100645.19;;;29.52;100.00
46718;BME280;32448;44.960;-0.698;2023-06-19T12:27:52;100642.22;;;29.57;100.00
46718;BME280;32448;44.960;-0.698;2023-06-19T12:30:21;100642.56;;;29.79;100.00
46718;BME280;32448;44.960;-0.698;2023-06-19T12:32:49;100636.31;;;30.20;100.00
46718;BME280;32448;44.960;-0.698;2023-06-19T12:35:17;100642.81;;;30.30;100.00
46718;BME280;32448;44.960;-0.698;2023-06-19T12:37:45;100630.00;;;30.33;100.00
46718;BME280;32448;44.960;-0.698;2023-06-19T12:40:12;100645.16;;;30.49;100.00
46718;BME280;32448;44.960;-0.698;2023-06-19T12:42:39;100640.06;;;30.44;100.00
46718;BME280;32448;44.960;-0.698;2023-06-19T12:45:07;100646.59;;;30.54;100.00